• Join FlightAware (Why Join?)
  • Login
  • US Flag 
05:49AM EDT


 

Airport Tracker/Info


-or-


 

Live Flight TrackerFlight Track Log ✈ ASQ5685 ✈ 28-Jul-2013 ✈ KATL - KIAD

Flight Track Log - Related Links

Times and Time Zones

All times are in EDT time to prevent confusion due to time zone crossing. See the ASQ5685 flight status page for this flight to view local times or setup timezone preferences in your user account.

Time Position Orientation Groundspeed Altitude Reporting Facility
EDT Latitude Longitude Course Direction KTS MPH feet Rate Location/Type
09:32AM 33.6286 -84.4853 48° Northeast 402 463 2,500  Level Atlanta Center
09:33AM 33.5992 -84.5575 244° Southwest 309 356 3,900 1,800 Climbing Atlanta Center
09:34AM 33.5342 -84.5872 201° Southwest 265 305 6,100 2,220 Climbing Atlanta Center
09:35AM 33.7767 -83.9335 54° Northeast  Level FlightAware Approximate
09:35AM 33.4697 -84.5667 165° South 288 331 8,400  Level Atlanta Center
09:36AM 33.8400 -83.8280 54° Northeast  Level FlightAware Approximate
09:36AM 33.4533 -84.4669 101° East 299 344 10,300  Level Atlanta Center
09:37AM 33.9085 -83.7276 48° Northeast  Level FlightAware Approximate
09:37AM 33.4578 -84.3575 87° East 317 365 11,100  Level Atlanta Center
09:38AM 33.5186 -84.2581 54° Northeast 330 380 12,000 1,020 Climbing Atlanta Center
09:39AM 33.5917 -84.1611 48° Northeast 353 406 13,200 1,380 Climbing Atlanta Center
09:40AM 33.6669 -84.0661 46° Northeast 382 440 14,800 1,440 Climbing Atlanta Center
09:41AM 33.7378 -83.9714 48° Northeast 387 445 16,100 1,140 Climbing Atlanta Center
09:42AM 33.8108 -83.8739 48° Northeast 387 445 17,100 900 Climbing Atlanta Center
09:43AM 33.8858 -83.7761 47° Northeast 387 445 18,000 900 Climbing Atlanta Center
09:44AM 33.9564 -83.6731 50° Northeast 395 455 19,000 960 Climbing Atlanta Center
09:45AM 34.0231 -83.5675 53° Northeast 395 455 20,000 1,020 Climbing Atlanta Center
09:46AM 34.0956 -83.4492 53° Northeast 395 455 21,100 1,020 Climbing Atlanta Center
09:47AM 34.1639 -83.3433 52° Northeast 395 455 22,100 960 Climbing Atlanta Center
09:48AM 34.2319 -83.2372 52° Northeast 390 449 23,100 720 Climbing Atlanta Center
09:49AM 34.3000 -83.1261 53° Northeast 395 455 23,600 480 Climbing Atlanta Center
09:50AM 34.3617 -83.0097 57° Northeast 405 466 24,100 480 Climbing Atlanta Center
09:51AM 34.4400 -82.8978 50° Northeast 418 481 24,600 480 Climbing Atlanta Center
09:52AM 34.5142 -82.7808 52° Northeast 426 490 25,100 480 Climbing Atlanta Center
09:53AM 34.5839 -82.6611 55° Northeast 431 496 25,600 480 Climbing Atlanta Center
09:54AM 34.6597 -82.5464 51° Northeast 437 503 26,100 480 Climbing Atlanta Center
09:55AM 34.7311 -82.4261 54° Northeast 437 503 26,600 480 Climbing Atlanta Center
09:56AM 34.8047 -82.3033 54° Northeast 437 503 27,100 480 Climbing Atlanta Center
09:57AM 34.8800 -82.1828 53° Northeast 445 512 27,600 480 Climbing Atlanta Center
09:58AM 34.9553 -82.0619 53° Northeast 445 512 28,100 480 Climbing Atlanta Center
09:59AM 35.0286 -81.9436 53° Northeast 445 512 28,600 480 Climbing Atlanta Center
10:00AM 35.0972 -81.8125 57° Northeast 445 512 29,100 480 Climbing Atlanta Center
10:01AM 35.1636 -81.6861 57° Northeast 445 512 29,600 480 Climbing Atlanta Center
10:02AM 35.2319 -81.5572 57° Northeast 445 512 30,100 540 Climbing Atlanta Center
10:03AM 35.2983 -81.4303 57° Northeast 445 512 30,700 420 Climbing Atlanta Center
10:04AM 35.3644 -81.3011 58° Northeast 445 512 31,000 120 Climbing Atlanta Center
10:05AM 35.4322 -81.1661 58° Northeast 451 519 31,000  Level Atlanta Center
10:06AM 35.5019 -81.0286 58° Northeast 466 536 31,000  Level Atlanta Center
10:07AM 35.5736 -80.8956 56° Northeast 471 542 31,000  Level Atlanta Center
10:08AM 35.6453 -80.7625 56° Northeast 471 542 31,000  Level Atlanta Center
10:09AM 35.7144 -80.6242 58° Northeast 466 536 31,000  Level Atlanta Center
10:10AM 35.7836 -80.4883 58° Northeast 466 536 31,000  Level Atlanta Center
10:11AM 35.8547 -80.3494 58° Northeast 471 542 31,000  Level Atlanta Center
10:13AM 36.0014 -80.0697 57° Northeast 471 542 31,000  Level Washington Center
10:14AM 36.0931 -79.9567 45° Northeast 454 522 31,000  Level Washington Center
10:15AM 36.1950 -79.8542 39° Northeast 454 522 31,000  Level Washington Center
10:16AM 36.2836 -79.7636 39° Northeast 462 532 31,000  Level Washington Center
10:17AM 36.3858 -79.6453 43° Northeast 462 532 31,000 -480 Level Washington Center
10:18AM 36.4586 -79.5303 52° Northeast 456 525 30,100 -1,740 Descending Washington Center
10:19AM 36.5356 -79.4075 52° Northeast 456 525 27,600 -2,460 Descending Washington Center
10:20AM 36.6122 -79.2897 51° Northeast 451 519 25,200 -1,320 Descending Washington Center
10:21AM 36.6953 -79.1642 50° Northeast 434 499 25,000 -120 Descending Washington Center
10:22AM 36.7656 -79.0481 53° Northeast 427 491 25,000  Level Washington Center
10:23AM 36.8375 -78.9372 51° Northeast 422 486 25,000  Level Washington Center
10:24AM 36.9117 -78.8233 51° Northeast 417 480 25,000  Level Washington Center
10:25AM 36.9747 -78.7194 53° Northeast 417 480 25,000  Level Washington Center
10:26AM 37.0486 -78.6081 50° Northeast 412 474 25,000  Level Washington Center
10:27AM 37.1183 -78.4933 53° Northeast 412 474 25,000  Level Washington Center
10:28AM 37.1983 -78.3686 51° Northeast 412 474 25,000  Level Washington Center
10:29AM 37.2719 -78.2567 50° Northeast 412 474 25,000  Level Washington Center
10:30AM 37.3653 -78.1761 34° Northeast 407 468 25,000 -360 Level Washington Center
10:31AM 37.4483 -78.1031 35° Northeast 402 463 24,300 -1,260 Descending Washington Center
10:32AM 37.5417 -78.0197 35° Northeast 408 470 22,600 -1,740 Descending Washington Center
10:33AM 37.6289 -77.9414 35° Northeast 397 457 20,800 -1,980 Descending Washington Center
10:34AM 37.7117 -77.8650 36° Northeast 384 442 18,700 -2,100 Descending Washington Center
10:35AM 37.7964 -77.7889 35° Northeast 374 430 16,600 -1,380 Descending Washington Center
10:36AM 37.8792 -77.7203 33° Northeast 362 417 16,000 -360 Descending Washington Center
10:37AM 37.9575 -77.6486 36° Northeast 356 410 16,000 -300 Level Washington Center
10:38AM 38.0358 -77.5797 35° Northeast 351 404 15,400 -1,920 Descending Washington Center
10:39AM 38.1161 -77.5078 35° Northeast 351 404 12,200 -2,700 Descending Washington Center
10:40AM 38.1944 -77.4411 34° Northeast 346 398 10,000 -1,140 Descending Washington Center
10:41AM 38.2744 -77.3903 27° Northeast 326 375 10,000 -780 Level Washington Center
10:42AM 38.3564 -77.3578 17° North 314 361 8,500 -1,560 Descending Washington Center
10:43AM 38.4397 -77.3597 359° North 300 345 6,900 -1,620 Descending Washington Center
10:44AM 38.5167 -77.3642 357° North 286 329 5,300 -960 Descending Washington Center
10:45AM 38.5939 -77.3686 357° North 279 321 5,000 -420 Descending Washington Center
10:46AM 38.6711 -77.3653 North 274 315 4,500 -540 Descending Washington Center
10:47AM 38.7461 -77.3617 North 267 307 4,000 -240 Descending Washington Center
10:48AM 38.8500 -77.3500 North 264 304 4,000  Level Potomac TRACON
10:49AM 38.9167 -77.3500 360° North 264 304 4,000  Level Potomac TRACON
10:50AM 38.9833 -77.3500 360° North 262 302 4,000 -360 Level Potomac TRACON
10:51AM 39.0333 -77.3500 360° North 226 260 3,400 -540 Descending Potomac TRACON
10:52AM 39.1000 -77.3500 360° North 224 258 3,000 -240 Descending Potomac TRACON
10:53AM 39.1667 -77.3500 360° North 230 265 3,000 -120 Level Potomac TRACON
10:54AM 39.2167 -77.3667 346° North 214 246 2,800 -300 Descending Potomac TRACON
10:55AM 39.1833 -77.4167 229° Southwest 200 230 2,500 -480 Descending Potomac TRACON
10:56AM 39.1333 -77.4333 194° South 204 235 2,000 -300 Descending Potomac TRACON
10:57AM 39.0833 -77.4333 180° South 196 226 2,000 -120 Level Potomac TRACON
10:58AM 39.0333 -77.4333 180° South 194 223 1,800 -600 Descending Potomac TRACON
10:59AM 38.9833 -77.4333 180° South 152 175 900 -900 Descending Potomac TRACON